Time;durP1;ratioP1;P1;durP2;ratioP2;P2;SDS_P1;SDS_P2;PMS_P1;PMS_P2;Temp;Humidity;BMP_temperature;BMP_pressure;BME280_temperature;BME280_humidity;BME280_pressure;Samples;Min_cycle;Max_cycle;Signal;HPM_P1;HPM_P2
2023/10/07 00:02:16;;;;;;;;;;;;;;;30.83;22.66;98422.06;5014560;28;20289;-89
2023/10/07 00:04:44;;;;;;;;;;;;;;;30.68;23.01;98407.72;5015082;28;19934;-89
2023/10/07 00:07:13;;;;;;;;;;;;;;;30.97;22.78;98412.97;5015825;28;19961;-89
2023/10/07 00:09:43;;;;;;;;;;;;;;;31.05;22.37;98400.03;5016353;28;19960;-89
2023/10/07 00:12:15;;;;;;;;;;;;;;;30.80;22.51;98401.13;5016306;28;19979;-88
2023/10/07 00:14:41;;;;;;;;;;;;;;;30.26;23.08;98401.00;5002065;28;20381;-90
2023/10/07 00:17:16;;;;;;;;;;;;;;;30.46;22.71;98405.00;5009398;28;19957;-89
2023/10/07 00:19:46;;;;;;;;;;;;;;;29.97;22.89;98401.41;5011490;28;19926;-89
2023/10/07 00:22:19;;;;;;;;;;;;;;;30.21;23.02;98401.63;5012436;28;19925;-89
2023/10/07 00:24:48;;;;;;;;;;;;;;;30.66;22.17;98404.56;5014407;28;19928;-89
2023/10/07 00:27:26;;;;;;;;;;;;;;;30.97;21.91;98387.44;5015570;28;19928;-88
2023/10/07 00:29:59;;;;;;;;;;;;;;;31.06;21.68;98379.72;5008696;28;20027;-89
2023/10/07 00:32:28;;;;;;;;;;;;;;;31.12;21.85;98379.84;5011766;28;19961;-89
2023/10/07 00:35:00;;;;;;;;;;;;;;;31.09;21.74;98377.94;5005840;28;19922;-89
2023/10/07 00:37:26;;;;;;;;;;;;;;;30.50;21.91;98380.13;5000755;28;19921;-88
2023/10/07 00:40:00;;;;;;;;;;;;;;;30.48;22.28;98379.81;5015185;28;19964;-88
2023/10/07 00:42:28;;;;;;;;;;;;;;;30.94;21.69;98374.19;5005891;28;20332;-89
2023/10/07 00:44:55;;;;;;;;;;;;;;;30.92;21.60;98371.06;5011848;28;19922;-88
2023/10/07 00:47:21;;;;;;;;;;;;;;;30.76;21.89;98374.94;5009741;28;19921;-88
2023/10/07 00:53:23;;;;;;;;;;;;;;;30.89;21.78;98357.81;5003989;28;19944;-88
2023/10/07 00:55:17;;;;;;;;;;;;;;;31.03;21.32;98348.66;5005821;28;20386;-88
2023/10/07 00:57:48;;;;;;;;;;;;;;;30.92;21.41;98339.84;5004015;28;20145;-88
2023/10/07 01:02:51;;;;;;;;;;;;;;;30.86;21.50;98338.88;5012905;28;19921;-88
2023/10/07 01:05:25;;;;;;;;;;;;;;;30.73;22.08;98325.69;5015138;28;19922;-89
2023/10/07 01:07:55;;;;;;;;;;;;;;;31.09;21.40;98333.34;5009220;28;19968;-87
2023/10/07 01:10:26;;;;;;;;;;;;;;;31.26;21.50;98326.06;5000076;28;19963;-87
2023/10/07 01:12:55;;;;;;;;;;;;;;;30.98;21.54;98332.28;5017947;28;20036;-87
2023/10/07 01:15:26;;;;;;;;;;;;;;;30.60;22.08;98327.88;5017030;28;20266;-88
2023/10/07 01:18:05;;;;;;;;;;;;;;;30.24;22.13;98321.38;5003748;28;19925;-88
2023/10/07 01:20:37;;;;;;;;;;;;;;;30.63;21.73;98324.09;5012434;28;19925;-87
2023/10/07 01:23:03;;;;;;;;;;;;;;;30.83;21.92;98326.44;5010923;28;19922;-88
2023/10/07 01:25:30;;;;;;;;;;;;;;;31.11;21.40;98322.31;5008698;28;19921;-88
2023/10/07 01:28:00;;;;;;;;;;;;;;;31.26;21.37;98319.59;5010028;28;19921;-89
2023/10/07 01:30:29;;;;;;;;;;;;;;;31.00;21.05;98309.91;5010458;28;19918;-89
2023/10/07 01:33:02;;;;;;;;;;;;;;;30.80;21.31;98313.22;5011887;28;19922;-89
2023/10/07 01:35:32;;;;;;;;;;;;;;;30.85;21.25;98309.75;5007802;28;20450;-89
2023/10/07 01:38:07;;;;;;;;;;;;;;;31.04;21.15;98307.69;5003630;28;19941;-89
2023/10/07 01:43:15;;;;;;;;;;;;;;;31.44;21.07;98298.94;5009294;28;19921;-90
2023/10/07 01:45:42;;;;;;;;;;;;;;;31.40;20.79;98301.91;5003375;28;20080;-89
2023/10/07 01:48:08;;;;;;;;;;;;;;;31.37;20.61;98300.00;5013545;28;19922;-89
2023/10/07 01:50:39;;;;;;;;;;;;;;;31.16;21.56;98295.34;5006773;28;19948;-89
2023/10/07 01:53:06;;;;;;;;;;;;;;;31.21;21.04;98291.88;5004525;28;19940;-91
2023/10/07 01:55:36;;;;;;;;;;;;;;;31.38;21.12;98293.88;5008693;28;19945;-90
2023/10/07 01:58:02;;;;;;;;;;;;;;;31.59;20.54;98296.97;5011196;28;19932;-90
2023/10/07 02:00:51;;;;;;;;;;;;;;;31.39;20.81;98289.00;5006931;28;19917;-90
2023/10/07 02:03:21;;;;;;;;;;;;;;;31.45;21.21;98280.63;5006182;28;19928;-90
2023/10/07 02:05:48;;;;;;;;;;;;;;;31.39;20.85;98289.75;5004074;28;19917;-90
2023/10/07 02:08:18;;;;;;;;;;;;;;;31.45;20.56;98280.63;5002247;28;20017;-91
2023/10/07 02:10:45;;;;;;;;;;;;;;;31.70;20.83;98280.16;5010686;28;19921;-90
2023/10/07 02:13:18;;;;;;;;;;;;;;;32.05;20.63;98262.16;5011916;28;20358;-90
2023/10/07 02:15:48;;;;;;;;;;;;;;;32.16;20.66;98260.81;5003763;28;19972;-90
2023/10/07 02:18:17;;;;;;;;;;;;;;;32.09;20.45;98256.31;5009014;28;19925;-90
2023/10/07 02:20:43;;;;;;;;;;;;;;;31.77;20.91;98257.88;5001875;28;22112;-90
2023/10/07 02:23:15;;;;;;;;;;;;;;;31.66;20.75;98251.97;5012811;28;19936;-90
2023/10/07 02:25:42;;;;;;;;;;;;;;;31.32;21.22;98253.19;5005191;28;20396;-90
2023/10/07 02:28:08;;;;;;;;;;;;;;;31.30;21.27;98249.28;5007401;28;19928;-90
2023/10/07 02:30:38;;;;;;;;;;;;;;;31.16;20.91;98253.59;5004955;28;20007;-90
2023/10/07 02:33:08;;;;;;;;;;;;;;;31.37;21.04;98246.88;5010111;28;19925;-90
2023/10/07 02:35:36;;;;;;;;;;;;;;;31.43;21.12;98241.38;5002601;28;20267;-90
2023/10/07 02:38:03;;;;;;;;;;;;;;;31.60;20.71;98236.84;5014383;28;19968;-90
2023/10/07 02:40:35;;;;;;;;;;;;;;;31.61;20.91;98237.63;5009241;28;20400;-89
2023/10/07 02:43:07;;;;;;;;;;;;;;;31.47;20.64;98241.97;4994124;28;19925;-88
2023/10/07 02:45:42;;;;;;;;;;;;;;;31.53;20.85;98231.53;5000265;28;20210;-89
2023/10/07 02:48:11;;;;;;;;;;;;;;;31.38;20.99;98234.28;5005991;28;20004;-88
2023/10/07 02:50:42;;;;;;;;;;;;;;;31.35;20.93;98232.38;5007939;28;19964;-89
2023/10/07 02:53:15;;;;;;;;;;;;;;;31.57;21.21;98226.47;5008513;28;19926;-89
2023/10/07 02:55:48;;;;;;;;;;;;;;;31.83;20.94;98221.09;5008287;28;19943;-88
2023/10/07 02:58:25;;;;;;;;;;;;;;;31.91;20.59;98230.81;5012912;28;19979;-88
2023/10/07 03:00:51;;;;;;;;;;;;;;;31.49;21.15;98216.72;5008808;28;19944;-90
2023/10/07 03:03:32;;;;;;;;;;;;;;;31.73;20.92;98226.06;5013176;28;19928;-87
2023/10/07 03:05:58;;;;;;;;;;;;;;;31.93;20.47;98216.91;5013472;28;19956;-89
2023/10/07 03:08:40;;;;;;;;;;;;;;;31.57;21.22;98212.28;4996924;28;19921;-89
2023/10/07 03:11:21;;;;;;;;;;;;;;;31.49;21.54;98215.94;5001861;28;20393;-89
2023/10/07 03:13:49;;;;;;;;;;;;;;;31.83;20.84;98206.91;5010867;28;19922;-89
2023/10/07 03:18:56;;;;;;;;;;;;;;;31.87;20.69;98208.28;5002640;28;19918;-89
2023/10/07 03:21:35;;;;;;;;;;;;;;;31.82;20.72;98208.16;5005343;28;19987;-89
2023/10/07 03:24:03;;;;;;;;;;;;;;;31.71;21.00;98216.44;4995353;28;19933;-89
2023/10/07 03:26:32;;;;;;;;;;;;;;;31.72;21.03;98204.59;4998904;28;20472;-89
2023/10/07 03:29:04;;;;;;;;;;;;;;;31.56;21.17;98202.19;5013525;28;19917;-89
2023/10/07 03:34:11;;;;;;;;;;;;;;;31.73;21.12;98205.38;5001282;28;20013;-88
2023/10/07 03:36:41;;;;;;;;;;;;;;;31.61;20.86;98201.53;5010619;28;19922;-88
2023/10/07 03:41:59;;;;;;;;;;;;;;;31.89;21.08;98202.13;5012341;28;19921;-88
2023/10/07 03:44:25;;;;;;;;;;;;;;;32.05;20.59;98193.97;5005849;28;19948;-89
2023/10/07 03:46:57;;;;;;;;;;;;;;;31.90;20.75;98195.19;5016959;28;19921;-88
2023/10/07 03:49:23;;;;;;;;;;;;;;;31.74;21.02;98195.63;5011792;28;19928;-88
2023/10/07 03:52:03;;;;;;;;;;;;;;;31.87;21.06;98199.78;5013863;28;20012;-89
2023/10/07 03:54:30;;;;;;;;;;;;;;;31.86;20.72;98197.41;5011028;28;19976;-88
2023/10/07 03:56:56;;;;;;;;;;;;;;;31.95;20.87;98197.34;5004940;28;19921;-88
2023/10/07 03:59:23;;;;;;;;;;;;;;;31.96;21.11;98196.88;5014369;28;19929;-88
2023/10/07 04:01:53;;;;;;;;;;;;;;;31.55;21.05;98189.28;5010020;28;19921;-88
2023/10/07 04:04:25;;;;;;;;;;;;;;;31.70;21.22;98183.63;5015679;28;19925;-88
2023/10/07 04:06:52;;;;;;;;;;;;;;;31.96;21.09;98193.22;5013870;28;19967;-88
2023/10/07 04:09:18;;;;;;;;;;;;;;;31.52;21.18;98178.88;5013665;28;19922;-88
2023/10/07 04:11:50;;;;;;;;;;;;;;;31.81;21.21;98184.66;5014875;28;19926;-89
2023/10/07 04:14:19;;;;;;;;;;;;;;;31.83;21.01;98184.97;5011390;28;19922;-88
2023/10/07 04:16:49;;;;;;;;;;;;;;;31.33;21.57;98188.72;5008248;28;19921;-88
2023/10/07 04:21:44;;;;;;;;;;;;;;;31.60;21.45;98180.06;5007498;28;19921;-91
2023/10/07 04:24:11;;;;;;;;;;;;;;;32.05;20.96;98181.81;5004321;28;19929;-90
2023/10/07 04:26:39;;;;;;;;;;;;;;;32.20;20.74;98174.13;5016169;28;19995;-89
2023/10/07 04:29:07;;;;;;;;;;;;;;;32.26;20.67;98177.03;5011393;28;20370;-89
2023/10/07 04:31:37;;;;;;;;;;;;;;;32.09;20.79;98183.19;5015489;28;19929;-88
2023/10/07 04:34:11;;;;;;;;;;;;;;;31.85;21.26;98179.59;5005701;28;20409;-90
2023/10/07 04:37:08;;;;;;;;;;;;;;;31.64;21.37;98179.91;5011851;28;19922;-89
2023/10/07 04:39:28;;;;;;;;;;;;;;;31.28;21.96;98178.81;5011312;28;20381;-88
2023/10/07 04:41:58;;;;;;;;;;;;;;;31.85;21.45;98178.81;5005238;28;19922;-89
2023/10/07 04:45:16;;;;;;;;;;;;;;;32.18;21.03;98185.19;5012280;28;19933;-89
2023/10/07 04:50:07;;;;;;;;;;;;;;;32.59;20.67;98183.38;4998753;28;19929;-90
2023/10/07 04:52:40;;;;;;;;;;;;;;;32.53;20.75;98186.16;5004988;28;20392;-92
2023/10/07 04:55:19;;;;;;;;;;;;;;;32.40;21.04;98184.81;5011136;28;19921;-92
2023/10/07 05:02:57;;;;;;;;;;;;;;;31.93;21.37;98192.13;5008500;28;20266;-91
2023/10/07 05:05:24;;;;;;;;;;;;;;;31.47;21.88;98196.56;5001351;28;19972;-92
2023/10/07 05:07:52;;;;;;;;;;;;;;;31.55;21.52;98189.28;5010406;28;19928;-92
2023/10/07 05:10:20;;;;;;;;;;;;;;;31.43;21.65;98184.63;5007034;28;20381;-92
2023/10/07 05:12:51;;;;;;;;;;;;;;;31.51;21.80;98191.50;5007973;28;19967;-90
2023/10/07 05:15:19;;;;;;;;;;;;;;;31.39;21.73;98196.09;5001953;28;20320;-90
2023/10/07 05:17:45;;;;;;;;;;;;;;;31.67;21.82;98187.47;5008028;28;20016;-90
2023/10/07 05:20:27;;;;;;;;;;;;;;;31.80;21.91;98191.63;5006707;28;19957;-90
2023/10/07 05:22:53;;;;;;;;;;;;;;;31.50;21.77;98189.94;5007532;28;19952;-91
2023/10/07 05:25:21;;;;;;;;;;;;;;;31.51;21.96;98194.31;4998759;28;19922;-91
2023/10/07 05:27:47;;;;;;;;;;;;;;;31.62;21.64;98188.91;5014619;28;19936;-89
2023/10/07 05:30:16;;;;;;;;;;;;;;;31.58;21.54;98187.53;5004170;28;19921;-88
2023/10/07 05:32:42;;;;;;;;;;;;;;;31.91;21.93;98191.06;5001883;28;19922;-90
2023/10/07 05:35:08;;;;;;;;;;;;;;;31.69;21.71;98187.75;5000677;28;19925;-92
2023/10/07 05:37:34;;;;;;;;;;;;;;;31.69;21.37;98196.28;5011198;28;20297;-93
2023/10/07 05:40:03;;;;;;;;;;;;;;;31.28;21.77;98200.72;5024896;28;19945;-90
2023/10/07 05:42:29;;;;;;;;;;;;;;;31.36;21.59;98193.44;5004566;28;19925;-92
2023/10/07 05:44:55;;;;;;;;;;;;;;;31.01;22.20;98196.00;5018883;28;19928;-92
2023/10/07 05:47:21;;;;;;;;;;;;;;;31.59;21.66;98195.53;5005371;28;19929;-91
2023/10/07 05:49:47;;;;;;;;;;;;;;;31.50;21.50;98189.94;5011239;28;20395;-91
2023/10/07 05:52:14;;;;;;;;;;;;;;;31.54;21.59;98190.53;5009788;28;20249;-90
2023/10/07 05:54:40;;;;;;;;;;;;;;;31.66;21.71;98198.03;5010355;28;20341;-92
2023/10/07 05:57:08;;;;;;;;;;;;;;;31.85;21.36;98196.63;5011470;28;19968;-92
2023/10/07 05:59:35;;;;;;;;;;;;;;;32.06;20.84;98191.91;5011907;28;20370;-91
2023/10/07 06:02:05;;;;;;;;;;;;;;;31.67;21.17;98204.50;5014777;28;19918;-91
2023/10/07 06:04:32;;;;;;;;;;;;;;;31.85;21.48;98213.69;5012453;28;19928;-91
2023/10/07 06:06:58;;;;;;;;;;;;;;;31.85;21.18;98212.88;5012759;28;20315;-91
2023/10/07 06:09:24;;;;;;;;;;;;;;;31.24;22.09;98226.47;5012141;28;19921;-92
2023/10/07 06:11:50;;;;;;;;;;;;;;;31.71;21.51;98225.75;5012761;28;19918;-91
2023/10/07 06:14:18;;;;;;;;;;;;;;;31.74;21.40;98216.25;5012203;28;20389;-92
2023/10/07 06:16:44;;;;;;;;;;;;;;;31.82;21.33;98213.84;5014142;28;19914;-91
2023/10/07 06:19:13;;;;;;;;;;;;;;;31.76;21.26;98210.91;5013199;28;19921;-92
2023/10/07 06:21:50;;;;;;;;;;;;;;;31.87;21.60;98216.81;5013672;28;19933;-93
2023/10/07 06:24:21;;;;;;;;;;;;;;;31.90;21.49;98212.22;5014084;28;19929;-92
2023/10/07 06:26:53;;;;;;;;;;;;;;;31.81;21.11;98217.97;5012333;28;19922;-91
2023/10/07 06:29:19;;;;;;;;;;;;;;;31.66;21.38;98211.44;5013069;28;19921;-91
2023/10/07 06:31:55;;;;;;;;;;;;;;;31.60;21.19;98214.13;5011356;28;19921;-91
2023/10/07 06:34:25;;;;;;;;;;;;;;;31.56;21.51;98212.75;5013036;28;19929;-92
2023/10/07 06:36:52;;;;;;;;;;;;;;;31.58;22.01;98230.88;5017098;28;19924;-92
2023/10/07 06:39:27;;;;;;;;;;;;;;;31.01;22.64;98220.72;5012586;28;19940;-91
2023/10/07 06:41:55;;;;;;;;;;;;;;;31.24;22.37;98226.47;5012429;28;20015;-92
2023/10/07 06:44:23;;;;;;;;;;;;;;;31.43;22.34;98230.03;5012077;28;19921;-92
2023/10/07 06:46:55;;;;;;;;;;;;;;;31.28;22.13;98237.63;5013211;28;19921;-93
2023/10/07 06:49:22;;;;;;;;;;;;;;;31.18;22.43;98228.34;5011549;28;19955;-91
2023/10/07 06:51:53;;;;;;;;;;;;;;;31.00;22.89;98227.66;5012686;28;19940;-92
2023/10/07 06:54:23;;;;;;;;;;;;;;;31.34;22.16;98221.53;5013880;28;19917;-93
2023/10/07 06:56:54;;;;;;;;;;;;;;;31.46;22.28;98217.69;5013540;28;19925;-91
2023/10/07 06:59:27;;;;;;;;;;;;;;;31.10;22.77;98221.47;5012375;28;19925;-92
2023/10/07 07:01:54;;;;;;;;;;;;;;;31.18;22.90;98227.59;5012568;28;19926;-91
2023/10/07 07:04:22;;;;;;;;;;;;;;;31.53;22.74;98217.34;5012028;28;19933;-92
2023/10/07 07:07:09;;;;;;;;;;;;;;;31.95;22.63;98229.34;5011364;28;20008;-92
2023/10/07 07:09:58;;;;;;;;;;;;;;;32.56;22.20;98229.84;5016130;28;19917;-93
2023/10/07 07:12:22;;;;;;;;;;;;;;;32.23;22.34;98229.19;5019786;28;19921;-92
2023/10/07 07:14:53;;;;;;;;;;;;;;;32.38;23.16;98232.84;5007640;28;19918;-93
2023/10/07 07:17:29;;;;;;;;;;;;;;;32.43;22.44;98229.31;5011295;28;19947;-91
2023/10/07 07:20:48;;;;;;;;;;;;;;;32.42;22.39;98222.84;5009026;28;20405;-91
2023/10/07 07:22:46;;;;;;;;;;;;;;;32.18;22.57;98227.81;5008754;28;20297;-92
2023/10/07 07:27:54;;;;;;;;;;;;;;;30.75;24.37;98218.25;5016550;28;20340;-92
2023/10/07 07:30:29;;;;;;;;;;;;;;;31.25;23.68;98213.06;5015668;28;19925;-93
2023/10/07 07:32:58;;;;;;;;;;;;;;;32.06;22.81;98206.13;5013666;28;19968;-90
2023/10/07 07:35:39;;;;;;;;;;;;;;;31.20;23.86;98211.63;5015790;28;19926;-91
2023/10/07 07:38:17;;;;;;;;;;;;;;;31.29;23.96;98213.66;5014449;28;19948;-91
2023/10/07 07:40:43;;;;;;;;;;;;;;;31.48;24.21;98197.34;5016059;28;20365;-89
2023/10/07 07:43:13;;;;;;;;;;;;;;;31.31;23.61;98205.47;5013995;28;20004;-91
2023/10/07 07:45:40;;;;;;;;;;;;;;;31.78;23.64;98188.47;5015365;28;19929;-92
2023/10/07 07:48:06;;;;;;;;;;;;;;;31.66;23.40;98186.66;5016665;28;20020;-90
2023/10/07 07:50:35;;;;;;;;;;;;;;;31.70;24.05;98190.09;5013375;28;19929;-92
2023/10/07 07:53:06;;;;;;;;;;;;;;;32.54;22.87;98199.06;5016202;28;19929;-91
2023/10/07 07:55:33;;;;;;;;;;;;;;;32.44;23.45;98188.25;5015830;28;19925;-92
2023/10/07 07:57:59;;;;;;;;;;;;;;;32.31;23.43;98201.94;5015941;28;19932;-89
2023/10/07 08:00:26;;;;;;;;;;;;;;;32.26;23.77;98205.47;5015013;28;19932;-93
2023/10/07 08:02:55;;;;;;;;;;;;;;;32.51;22.92;98193.59;5014411;28;19995;-93
2023/10/07 08:05:28;;;;;;;;;;;;;;;31.86;23.49;98194.56;5012809;28;20278;-90
2023/10/07 08:07:55;;;;;;;;;;;;;;;32.25;23.47;98190.50;5015965;28;20014;-91
2023/10/07 08:10:22;;;;;;;;;;;;;;;31.55;24.25;98202.69;5014830;28;19921;-89
2023/10/07 08:12:50;;;;;;;;;;;;;;;31.99;23.36;98193.09;5020573;28;20293;-91
2023/10/07 08:15:26;;;;;;;;;;;;;;;32.34;23.06;98195.28;5011492;28;19922;-89
2023/10/07 08:17:56;;;;;;;;;;;;;;;31.56;24.50;98199.34;5013960;28;19929;-90
2023/10/07 08:21:09;;;;;;;;;;;;;;;32.36;23.87;98196.38;5011817;28;20348;-92
2023/10/07 08:23:21;;;;;;;;;;;;;;;32.88;23.04;98213.88;5016481;28;19961;-92
2023/10/07 08:25:47;;;;;;;;;;;;;;;32.07;23.73;98208.47;5015173;28;19922;-91
2023/10/07 08:28:22;;;;;;;;;;;;;;;31.89;24.25;98210.63;5014230;28;20408;-91
2023/10/07 08:30:48;;;;;;;;;;;;;;;32.05;23.92;98204.53;5008027;28;20338;-91
2023/10/07 08:33:15;;;;;;;;;;;;;;;31.87;24.30;98208.28;5011372;28;19925;-90
2023/10/07 08:35:47;;;;;;;;;;;;;;;32.47;23.89;98198.63;5016002;28;19929;-90
2023/10/07 08:38:58;;;;;;;;;;;;;;;31.86;24.07;98201.03;5015180;28;19960;-91
2023/10/07 08:41:07;;;;;;;;;;;;;;;31.64;24.62;98200.56;5002190;28;19958;-91
2023/10/07 08:43:38;;;;;;;;;;;;;;;31.57;25.10;98200.13;5012091;28;19967;-92
2023/10/07 08:46:08;;;;;;;;;;;;;;;31.61;24.55;98198.69;5017123;28;19968;-92
2023/10/07 08:48:38;;;;;;;;;;;;;;;31.52;24.77;98193.06;5014101;28;19917;-91
2023/10/07 08:51:25;;;;;;;;;;;;;;;32.09;23.90;98185.28;5011547;28;19929;-92
2023/10/07 08:54:04;;;;;;;;;;;;;;;32.08;24.28;98193.00;5013737;28;19953;-91
2023/10/07 08:56:35;;;;;;;;;;;;;;;32.27;24.38;98187.94;5011977;28;19922;-91
2023/10/07 08:59:12;;;;;;;;;;;;;;;32.25;24.00;98184.81;5037885;28;19940;-91
2023/10/07 09:01:42;;;;;;;;;;;;;;;31.52;25.52;98181.72;5008826;28;20344;-90
2023/10/07 09:04:08;;;;;;;;;;;;;;;32.07;25.29;98185.75;5022184;28;19921;-90
2023/10/07 09:06:37;;;;;;;;;;;;;;;32.31;24.81;98170.69;5011226;28;19921;-92
2023/10/07 09:09:06;;;;;;;;;;;;;;;33.12;23.89;98169.81;5010459;28;19929;-92
2023/10/07 09:11:36;;;;;;;;;;;;;;;32.67;23.97;98171.13;5012145;28;19926;-94
2023/10/07 09:14:09;;;;;;;;;;;;;;;32.58;23.91;98159.09;5013143;28;19921;-93
2023/10/07 09:16:38;;;;;;;;;;;;;;;32.47;24.34;98164.53;5012955;28;20016;-90
2023/10/07 09:19:15;;;;;;;;;;;;;;;32.26;24.71;98148.63;5015679;28;19928;-91
2023/10/07 09:21:45;;;;;;;;;;;;;;;32.92;24.28;98154.72;5015652;28;19956;-91
2023/10/07 09:24:26;;;;;;;;;;;;;;;33.13;24.21;98165.69;5013319;28;20400;-93
2023/10/07 09:26:59;;;;;;;;;;;;;;;32.88;24.33;98152.09;5009928;28;20381;-90
2023/10/07 09:29:26;;;;;;;;;;;;;;;33.42;23.61;98154.22;5015377;28;19944;-89
2023/10/07 09:32:04;;;;;;;;;;;;;;;33.36;23.81;98161.91;5014885;28;20012;-93
2023/10/07 09:34:44;;;;;;;;;;;;;;;32.94;24.15;98167.19;5013990;28;19953;-89
2023/10/07 09:37:17;;;;;;;;;;;;;;;33.49;23.68;98161.56;5011286;28;19940;-91
2023/10/07 09:39:53;;;;;;;;;;;;;;;33.66;23.50;98151.19;5008065;28;19929;-91
2023/10/07 09:42:26;;;;;;;;;;;;;;;33.91;23.71;98144.00;5014873;28;19921;-93
2023/10/07 09:45:27;;;;;;;;;;;;;;;33.56;23.11;98141.22;5013924;28;19925;-93
2023/10/07 09:47:44;;;;;;;;;;;;;;;33.22;24.58;98139.97;5007720;28;19929;-91
2023/10/07 09:53:02;;;;;;;;;;;;;;;33.42;24.09;98157.06;5005743;28;19961;-93
2023/10/07 09:55:38;;;;;;;;;;;;;;;33.35;24.01;98139.63;5007430;28;19922;-91
2023/10/07 09:58:11;;;;;;;;;;;;;;;34.31;23.82;98140.34;4996458;28;19951;-89
2023/10/07 10:01:05;;;;;;;;;;;;;;;34.47;23.36;98140.47;5012539;28;19921;-90
2023/10/07 10:03:51;;;;;;;;;;;;;;;33.04;24.63;98131.69;5013163;28;19925;-90
2023/10/07 10:06:29;;;;;;;;;;;;;;;32.94;24.93;98141.56;5000331;28;20386;-88
2023/10/07 10:08:57;;;;;;;;;;;;;;;33.77;24.44;98142.03;5012435;28;20023;-88
2023/10/07 10:11:31;;;;;;;;;;;;;;;33.83;24.30;98131.47;5011188;28;19921;-91
2023/10/07 10:16:45;;;;;;;;;;;;;;;32.15;26.00;98126.50;5011904;28;20407;-92
2023/10/07 10:19:18;;;;;;;;;;;;;;;32.69;25.51;98133.69;5005585;28;19993;-92
2023/10/07 10:21:44;;;;;;;;;;;;;;;32.96;25.01;98132.53;5008058;28;19929;-93
2023/10/07 10:24:14;;;;;;;;;;;;;;;33.07;24.39;98130.66;5007941;28;19922;-93
2023/10/07 10:26:41;;;;;;;;;;;;;;;33.38;24.55;98133.72;5005149;28;19929;-92
2023/10/07 10:29:15;;;;;;;;;;;;;;;33.32;24.43;98130.03;5006947;28;19922;-93
2023/10/07 10:31:58;;;;;;;;;;;;;;;33.35;25.02;98128.25;5007715;28;19965;-89
2023/10/07 10:34:26;;;;;;;;;;;;;;;34.25;24.14;98128.06;5009141;28;19932;-91
2023/10/07 10:36:55;;;;;;;;;;;;;;;34.34;23.81;98125.84;5012464;28;20055;-87
2023/10/07 10:39:25;;;;;;;;;;;;;;;34.05;23.74;98118.28;5010975;28;20019;-86
2023/10/07 10:41:53;;;;;;;;;;;;;;;34.18;24.14;98115.06;5013101;28;20000;-89
2023/10/07 10:44:20;;;;;;;;;;;;;;;33.67;25.20;98112.13;5009840;28;20286;-88
2023/10/07 10:46:48;;;;;;;;;;;;;;;34.00;23.82;98118.22;5011666;28;20385;-87
2023/10/07 10:49:16;;;;;;;;;;;;;;;34.77;23.42;98114.56;5009391;28;19921;-87
2023/10/07 10:51:46;;;;;;;;;;;;;;;34.70;22.68;98113.72;5005081;28;19922;-87
2023/10/07 10:54:13;;;;;;;;;;;;;;;34.38;23.39;98100.72;5001450;28;19937;-88
2023/10/07 10:56:47;;;;;;;;;;;;;;;34.49;22.99;98098.00;5010735;28;19922;-88
2023/10/07 10:59:14;;;;;;;;;;;;;;;35.08;22.97;98106.03;5012034;28;19980;-90
2023/10/07 11:01:44;;;;;;;;;;;;;;;34.53;23.47;98104.28;5011479;28;19945;-89
2023/10/07 11:04:12;;;;;;;;;;;;;;;35.21;23.42;98097.78;5000088;28;20385;-88
2023/10/07 11:06:39;;;;;;;;;;;;;;;35.66;22.03;98085.28;5010940;28;19964;-87
2023/10/07 11:09:05;;;;;;;;;;;;;;;34.69;22.93;98092.22;5007123;28;19928;-88
2023/10/07 11:11:35;;;;;;;;;;;;;;;35.50;22.47;98079.50;5009832;28;19921;-90
2023/10/07 11:14:09;;;;;;;;;;;;;;;35.46;22.16;98081.81;5010565;28;20393;-93
2023/10/07 11:16:48;;;;;;;;;;;;;;;35.17;22.90;98080.88;5009549;28;19925;-89
2023/10/07 11:19:18;;;;;;;;;;;;;;;35.56;22.12;98077.47;5005795;28;19925;-90
2023/10/07 11:21:48;;;;;;;;;;;;;;;35.62;21.62;98063.97;5012574;28;19956;-86
2023/10/07 11:24:35;;;;;;;;;;;;;;;35.90;22.01;98056.28;5007673;28;19917;-89
2023/10/07 11:27:02;;;;;;;;;;;;;;;35.85;21.83;98072.09;5010956;28;20367;-89
2023/10/07 11:29:32;;;;;;;;;;;;;;;35.35;21.99;98056.84;5008411;28;19918;-91
2023/10/07 11:32:07;;;;;;;;;;;;;;;35.90;22.07;98062.78;5012807;28;20304;-91
2023/10/07 11:34:38;;;;;;;;;;;;;;;35.52;22.04;98065.50;5007089;28;19938;-91
2023/10/07 11:37:19;;;;;;;;;;;;;;;36.10;21.65;98064.66;5009331;28;20004;-92
2023/10/07 11:39:45;;;;;;;;;;;;;;;35.40;22.71;98056.09;5010887;28;20340;-89
2023/10/07 11:42:12;;;;;;;;;;;;;;;34.72;21.88;98073.31;5010710;28;20401;-90
2023/10/07 11:44:39;;;;;;;;;;;;;;;33.86;23.01;98060.03;5007444;28;19975;-92
2023/10/07 11:47:06;;;;;;;;;;;;;;;34.61;22.32;98068.28;5011735;28;20431;-89
2023/10/07 11:49:34;;;;;;;;;;;;;;;34.57;22.74;98062.03;5005158;28;19948;-87
2023/10/07 11:52:04;;;;;;;;;;;;;;;34.81;22.51;98047.44;5011162;28;20296;-91
2023/10/07 11:54:34;;;;;;;;;;;;;;;34.83;22.75;98055.47;5007720;28;19922;-91
2023/10/07 11:57:01;;;;;;;;;;;;;;;34.97;22.06;98040.25;5005426;28;19918;-90
2023/10/07 11:59:27;;;;;;;;;;;;;;;35.06;22.30;98045.78;5015891;28;20025;-90
2023/10/07 12:01:54;;;;;;;;;;;;;;;35.36;21.96;98046.97;5008939;28;19968;-92
2023/10/07 12:04:21;;;;;;;;;;;;;;;35.59;21.47;98037.25;5012171;28;19922;-91
2023/10/07 12:06:49;;;;;;;;;;;;;;;35.27;21.48;98041.47;5005807;28;20404;-92
2023/10/07 12:09:20;;;;;;;;;;;;;;;34.82;22.78;98036.81;5014247;28;20048;-91
2023/10/07 12:11:46;;;;;;;;;;;;;;;34.07;23.84;98043.69;5008406;28;19961;-91
2023/10/07 12:14:13;;;;;;;;;;;;;;;34.96;22.06;98056.59;5003820;28;19922;-93
2023/10/07 12:16:42;;;;;;;;;;;;;;;34.43;22.82;98057.22;5012455;28;19922;-91
2023/10/07 12:19:10;;;;;;;;;;;;;;;34.80;22.13;98060.13;5007793;28;19948;-90
2023/10/07 12:21:39;;;;;;;;;;;;;;;35.04;22.04;98052.00;5014707;28;19921;-91
2023/10/07 12:24:06;;;;;;;;;;;;;;;34.23;22.26;98045.91;5002089;28;19921;-92
2023/10/07 12:26:32;;;;;;;;;;;;;;;35.44;21.69;98030.91;5006264;28;19922;-91
2023/10/07 12:28:58;;;;;;;;;;;;;;;35.54;20.79;98040.84;5011204;28;19929;-90
2023/10/07 12:31:24;;;;;;;;;;;;;;;34.12;22.80;98027.94;5016390;28;19925;-90
2023/10/07 12:33:50;;;;;;;;;;;;;;;34.77;21.73;98038.34;5014575;28;19929;-93
2023/10/07 12:36:18;;;;;;;;;;;;;;;33.93;22.26;98031.09;5004187;28;19960;-93
2023/10/07 12:38:44;;;;;;;;;;;;;;;33.33;23.10;98016.91;5009668;28;19926;-89
2023/10/07 12:41:13;;;;;;;;;;;;;;;33.62;23.24;98019.63;5012601;28;20447;-88
2023/10/07 12:43:39;;;;;;;;;;;;;;;33.71;22.48;98018.69;5007826;28;19932;-88
2023/10/07 12:46:14;;;;;;;;;;;;;;;33.49;22.94;98021.28;5008060;28;19928;-87
2023/10/07 12:48:41;;;;;;;;;;;;;;;34.08;22.84;98017.53;5013498;28;20303;-88
2023/10/07 12:51:07;;;;;;;;;;;;;;;34.89;21.60;98016.34;5011329;28;20017;-87
2023/10/07 12:53:35;;;;;;;;;;;;;;;34.31;21.86;98015.66;5008233;28;20020;-89
2023/10/07 12:56:12;;;;;;;;;;;;;;;33.79;22.78;97999.88;5011588;28;19917;-89
2023/10/07 12:58:39;;;;;;;;;;;;;;;34.61;21.76;98008.38;5011462;28;20358;-89
2023/10/07 13:01:11;;;;;;;;;;;;;;;34.17;22.27;98019.41;5011119;28;19968;-89
2023/10/07 13:03:40;;;;;;;;;;;;;;;34.10;22.64;98010.56;5011665;28;19933;-85
2023/10/07 13:06:10;;;;;;;;;;;;;;;34.38;23.23;98009.50;5005899;28;19929;-86
2023/10/07 13:08:38;;;;;;;;;;;;;;;35.03;21.66;98001.91;5011893;28;19922;-87
2023/10/07 13:11:11;;;;;;;;;;;;;;;34.84;21.47;98011.41;5008314;28;19929;-87
2023/10/07 13:13:38;;;;;;;;;;;;;;;34.55;21.55;98001.09;5011188;28;19929;-87
2023/10/07 13:16:14;;;;;;;;;;;;;;;33.74;22.12;98001.38;5008697;28;19930;-93
2023/10/07 13:18:40;;;;;;;;;;;;;;;34.86;22.21;97992.47;5010281;28;19975;-89
2023/10/07 13:21:18;;;;;;;;;;;;;;;35.29;21.88;98002.56;5012138;28;19948;-89
2023/10/07 13:23:45;;;;;;;;;;;;;;;34.38;21.90;97997.31;5008886;28;19994;-87
2023/10/07 13:26:12;;;;;;;;;;;;;;;33.18;23.10;98002.00;5006574;28;19922;-90
2023/10/07 13:28:38;;;;;;;;;;;;;;;33.58;22.82;98006.91;5010472;28;19918;-91
2023/10/07 13:31:07;;;;;;;;;;;;;;;33.37;22.51;98017.50;5010536;28;19932;-89
2023/10/07 13:33:38;;;;;;;;;;;;;;;34.01;21.74;98008.63;5013739;28;20016;-90
2023/10/07 13:36:06;;;;;;;;;;;;;;;33.93;22.36;98019.72;5013113;28;19957;-90
2023/10/07 13:38:32;;;;;;;;;;;;;;;34.46;21.81;98015.50;5011024;28;19922;-89
2023/10/07 13:41:00;;;;;;;;;;;;;;;34.01;22.37;98020.03;5011776;28;20434;-89